Time;durP1;ratioP1;P1;durP2;ratioP2;P2;SDS_P1;SDS_P2;PMS_P1;PMS_P2;Temp;Humidity;BMP_temperature;BMP_pressure;BME280_temperature;BME280_humidity;BME280_pressure;Samples;Min_cycle;Max_cycle;Signal;HPM_P1;HPM_P2
2023/07/31 00:01:37;;;;;;;5.50;2.22;;;;;;;;;;5040101;28;20216;-68
2023/07/31 00:04:04;;;;;;;4.07;2.25;;;;;;;;;;5034171;28;20216;-67
2023/07/31 00:06:32;;;;;;;4.15;1.90;;;;;;;;;;5038120;28;20214;-67
2023/07/31 00:08:59;;;;;;;5.15;2.33;;;;;;;;;;5043218;28;20222;-68
2023/07/31 00:11:27;;;;;;;4.78;2.58;;;;;;;;;;5034764;28;20204;-67
2023/07/31 00:13:55;;;;;;;6.18;2.60;;;;;;;;;;5034927;28;20208;-67
2023/07/31 00:16:22;;;;;;;3.13;2.20;;;;;;;;;;5045483;28;20227;-68
2023/07/31 00:18:49;;;;;;;3.88;2.28;;;;;;;;;;5048348;28;20211;-67
2023/07/31 00:21:16;;;;;;;3.13;2.10;;;;;;;;;;5050751;28;20212;-68
2023/07/31 00:23:43;;;;;;;4.22;2.25;;;;;;;;;;5049930;28;20247;-67
2023/07/31 00:26:10;;;;;;;5.53;2.75;;;;;;;;;;5041286;28;20208;-68
2023/07/31 00:28:39;;;;;;;3.97;2.33;;;;;;;;;;5046884;28;20208;-68
2023/07/31 00:31:06;;;;;;;3.90;2.42;;;;;;;;;;5049882;28;20214;-67
2023/07/31 00:33:33;;;;;;;5.18;2.70;;;;;;;;;;5049520;28;20203;-66
2023/07/31 00:36:00;;;;;;;5.22;2.38;;;;;;;;;;5039458;28;20228;-67
2023/07/31 00:38:28;;;;;;;3.22;1.92;;;;;;;;;;5036260;28;20316;-67
2023/07/31 00:40:55;;;;;;;3.42;2.25;;;;;;;;;;5045844;28;20207;-67
2023/07/31 00:43:22;;;;;;;4.72;2.30;;;;;;;;;;5036760;28;20215;-67
2023/07/31 00:45:51;;;;;;;5.65;2.40;;;;;;;;;;5045925;28;20204;-68
2023/07/31 00:48:18;;;;;;;3.17;2.05;;;;;;;;;;5048502;28;20212;-68
2023/07/31 00:50:45;;;;;;;3.08;2.10;;;;;;;;;;5047185;28;20204;-67
2023/07/31 00:53:12;;;;;;;3.35;2.67;;;;;;;;;;5047509;28;20212;-67
2023/07/31 00:55:40;;;;;;;2.95;2.30;;;;;;;;;;5046302;28;20224;-68
2023/07/31 00:58:07;;;;;;;5.55;2.28;;;;;;;;;;5039807;28;20218;-67
2023/07/31 01:00:34;;;;;;;3.78;2.13;;;;;;;;;;5037645;28;20210;-71
2023/07/31 01:03:02;;;;;;;5.65;2.10;;;;;;;;;;5037814;28;20249;-71
2023/07/31 01:05:33;;;;;;;4.00;2.22;;;;;;;;;;5037679;28;20219;-71
2023/07/31 01:08:04;;;;;;;4.50;2.30;;;;;;;;;;5041695;28;20208;-72
2023/07/31 01:10:35;;;;;;;2.80;2.05;;;;;;;;;;5032007;28;20212;-71
2023/07/31 01:13:03;;;;;;;3.33;2.20;;;;;;;;;;5038284;28;20285;-71
2023/07/31 01:18:36;;;;;;;4.10;2.15;;;;;;;;;;5080583;22;20242;-90
2023/07/31 01:21:09;;;;;;;3.20;2.15;;;;;;;;;;5018869;28;20210;-92
2023/07/31 01:23:55;;;;;;;4.15;2.17;;;;;;;;;;5019120;28;20208;-92
2023/07/31 01:26:26;;;;;;;3.05;1.88;;;;;;;;;;5024754;28;20208;-90
2023/07/31 01:28:57;;;;;;;3.55;2.22;;;;;;;;;;5026817;28;20208;-90
2023/07/31 01:31:25;;;;;;;3.05;2.35;;;;;;;;;;5014206;28;20200;-90
2023/07/31 01:33:54;;;;;;;6.22;2.35;;;;;;;;;;5014273;28;20212;-90
2023/07/31 01:36:22;;;;;;;5.40;2.35;;;;;;;;;;5013907;28;20237;-89
2023/07/31 01:38:50;;;;;;;5.97;2.42;;;;;;;;;;5013560;28;20211;-90
2023/07/31 01:41:18;;;;;;;2.53;2.28;;;;;;;;;;5013572;28;20244;-89
2023/07/31 01:43:47;;;;;;;6.13;2.30;;;;;;;;;;5014173;28;20208;-90
2023/07/31 01:46:15;;;;;;;3.50;1.90;;;;;;;;;;5014022;28;20208;-90
2023/07/31 01:48:42;;;;;;;3.10;2.03;;;;;;;;;;5017978;28;20291;-89
2023/07/31 01:51:10;;;;;;;3.78;2.45;;;;;;;;;;5032108;28;20219;-90
2023/07/31 01:53:37;;;;;;;2.60;2.10;;;;;;;;;;5026588;28;20239;-90
2023/07/31 01:56:04;;;;;;;5.28;2.20;;;;;;;;;;5025083;28;20224;-90
2023/07/31 01:58:32;;;;;;;3.05;1.90;;;;;;;;;;5026104;28;20204;-89
2023/07/31 02:01:01;;;;;;;2.15;1.70;;;;;;;;;;5021494;28;20204;-90
2023/07/31 02:03:28;;;;;;;6.03;2.47;;;;;;;;;;5013569;28;20208;-90
2023/07/31 02:05:56;;;;;;;3.58;2.13;;;;;;;;;;5014274;28;20207;-89
2023/07/31 02:08:24;;;;;;;3.60;2.47;;;;;;;;;;5033785;28;20208;-90
2023/07/31 02:10:51;;;;;;;4.20;2.35;;;;;;;;;;5016596;28;20220;-90
2023/07/31 02:13:18;;;;;;;5.03;2.30;;;;;;;;;;5023159;28;20218;-90
2023/07/31 02:15:47;;;;;;;3.75;2.22;;;;;;;;;;5020038;28;20216;-89
2023/07/31 02:18:16;;;;;;;3.58;2.08;;;;;;;;;;5016920;28;20739;-90
2023/07/31 02:20:46;;;;;;;7.05;2.30;;;;;;;;;;5033465;28;20196;-90
2023/07/31 02:23:13;;;;;;;3.33;2.15;;;;;;;;;;5036052;28;20211;-90
2023/07/31 02:25:40;;;;;;;3.15;2.20;;;;;;;;;;5027448;28;20234;-91
2023/07/31 02:28:08;;;;;;;5.50;2.20;;;;;;;;;;5036896;28;20203;-91
2023/07/31 02:30:35;;;;;;;3.20;2.60;;;;;;;;;;5024593;28;20208;-91
2023/07/31 02:33:03;;;;;;;4.05;2.28;;;;;;;;;;5029396;28;20217;-92
2023/07/31 02:35:31;;;;;;;2.85;2.35;;;;;;;;;;5019757;28;20220;-91
2023/07/31 02:37:59;;;;;;;2.88;2.22;;;;;;;;;;5030827;28;20214;-92
2023/07/31 02:40:26;;;;;;;4.05;2.35;;;;;;;;;;5037066;28;20259;-91
2023/07/31 02:42:53;;;;;;;3.22;2.20;;;;;;;;;;5019352;28;20220;-92
2023/07/31 02:45:21;;;;;;;4.53;2.20;;;;;;;;;;5029785;28;20212;-92
2023/07/31 02:47:48;;;;;;;4.43;2.47;;;;;;;;;;5020711;28;20204;-92
2023/07/31 02:50:16;;;;;;;4.13;2.33;;;;;;;;;;5029016;28;20218;-92
2023/07/31 02:52:45;;;;;;;4.65;2.60;;;;;;;;;;5025418;28;20209;-92
2023/07/31 02:55:12;;;;;;;5.57;2.42;;;;;;;;;;5016689;28;20243;-91
2023/07/31 02:57:40;;;;;;;5.80;2.47;;;;;;;;;;5027667;28;20292;-91
2023/07/31 03:00:09;;;;;;;6.30;2.90;;;;;;;;;;5016513;28;20212;-92
2023/07/31 03:02:36;;;;;;;4.38;2.70;;;;;;;;;;5017156;28;20232;-92
2023/07/31 03:05:04;;;;;;;6.15;2.90;;;;;;;;;;5026150;28;20273;-91
2023/07/31 03:07:31;;;;;;;7.03;2.60;;;;;;;;;;5024477;28;20219;-92
2023/07/31 03:10:00;;;;;;;5.70;3.05;;;;;;;;;;5020729;28;20204;-91
2023/07/31 03:12:28;;;;;;;5.18;2.75;;;;;;;;;;5015667;28;20209;-92
2023/07/31 03:14:55;;;;;;;5.65;2.55;;;;;;;;;;5022518;28;20209;-92
2023/07/31 03:17:23;;;;;;;8.05;2.67;;;;;;;;;;5036453;28;20230;-91
2023/07/31 03:19:50;;;;;;;6.03;2.78;;;;;;;;;;5020247;28;20244;-91
2023/07/31 03:22:19;;;;;;;5.40;3.03;;;;;;;;;;5015410;28;20208;-90
2023/07/31 03:24:47;;;;;;;4.93;2.60;;;;;;;;;;5020414;28;20213;-91
2023/07/31 03:27:16;;;;;;;7.65;3.05;;;;;;;;;;5026656;28;20299;-92
2023/07/31 03:29:44;;;;;;;6.70;3.17;;;;;;;;;;5022430;28;20208;-91
2023/07/31 03:32:11;;;;;;;6.65;2.83;;;;;;;;;;5025010;28;20219;-92
2023/07/31 03:34:38;;;;;;;5.05;2.90;;;;;;;;;;5019006;28;20219;-91
2023/07/31 03:37:06;;;;;;;6.35;3.08;;;;;;;;;;5024626;28;20230;-92
2023/07/31 03:39:34;;;;;;;4.35;2.60;;;;;;;;;;5019869;28;20216;-91
2023/07/31 03:42:01;;;;;;;8.30;3.10;;;;;;;;;;5019341;28;20208;-92
2023/07/31 03:44:30;;;;;;;6.25;3.15;;;;;;;;;;5020717;28;20204;-91
2023/07/31 03:46:58;;;;;;;4.80;2.58;;;;;;;;;;5015736;28;20205;-92
2023/07/31 03:49:25;;;;;;;5.63;2.70;;;;;;;;;;5019907;28;20215;-91
2023/07/31 03:51:53;;;;;;;5.07;3.00;;;;;;;;;;5030281;28;20216;-91
2023/07/31 03:54:20;;;;;;;4.88;2.70;;;;;;;;;;5027250;28;20212;-92
2023/07/31 03:56:48;;;;;;;5.20;3.08;;;;;;;;;;5024814;28;20233;-92
2023/07/31 03:59:15;;;;;;;5.90;2.85;;;;;;;;;;5030356;28;20216;-91
2023/07/31 04:01:44;;;;;;;6.47;3.08;;;;;;;;;;5027502;28;20214;-91
2023/07/31 04:04:12;;;;;;;5.57;2.72;;;;;;;;;;5023794;28;20209;-92
2023/07/31 04:06:39;;;;;;;5.32;2.88;;;;;;;;;;5015872;28;20212;-91
2023/07/31 04:09:07;;;;;;;7.00;2.90;;;;;;;;;;5015723;28;20215;-91
2023/07/31 04:11:35;;;;;;;5.30;2.75;;;;;;;;;;5015991;28;20287;-92
2023/07/31 04:14:02;;;;;;;5.10;2.90;;;;;;;;;;5015850;28;20205;-92
2023/07/31 04:16:30;;;;;;;5.50;2.88;;;;;;;;;;5015615;28;20312;-91
2023/07/31 04:18:58;;;;;;;6.20;2.90;;;;;;;;;;5013940;28;20296;-91
2023/07/31 04:21:26;;;;;;;5.53;3.20;;;;;;;;;;5015148;28;20296;-92
2023/07/31 04:23:55;;;;;;;4.20;2.80;;;;;;;;;;5015830;28;20205;-92
2023/07/31 04:26:23;;;;;;;6.35;2.80;;;;;;;;;;5019913;28;20211;-91
2023/07/31 04:28:50;;;;;;;7.65;2.83;;;;;;;;;;5021665;28;20211;-91
2023/07/31 04:31:18;;;;;;;7.68;3.28;;;;;;;;;;5032808;28;20208;-92
2023/07/31 04:33:46;;;;;;;6.22;2.78;;;;;;;;;;5018977;28;20299;-92
2023/07/31 04:36:15;;;;;;;8.20;3.13;;;;;;;;;;5015356;28;20228;-91
2023/07/31 04:38:42;;;;;;;3.97;2.88;;;;;;;;;;5018062;28;20247;-92
2023/07/31 04:41:10;;;;;;;10.20;2.72;;;;;;;;;;5024363;28;20214;-92
2023/07/31 04:43:39;;;;;;;6.40;2.70;;;;;;;;;;5018080;28;20204;-92
2023/07/31 04:46:07;;;;;;;5.80;3.10;;;;;;;;;;5026211;28;20204;-91
2023/07/31 04:48:35;;;;;;;5.78;2.85;;;;;;;;;;5022729;28;20218;-92
2023/07/31 04:51:03;;;;;;;7.45;3.20;;;;;;;;;;5033495;28;20214;-92
2023/07/31 04:53:31;;;;;;;6.22;3.15;;;;;;;;;;5018232;28;20204;-92
2023/07/31 04:55:59;;;;;;;4.03;2.92;;;;;;;;;;5029882;28;20238;-91
2023/07/31 04:58:26;;;;;;;7.05;3.20;;;;;;;;;;5014574;28;20213;-91
2023/07/31 05:00:54;;;;;;;5.70;2.90;;;;;;;;;;5014208;28;20200;-91
2023/07/31 05:03:21;;;;;;;9.68;3.08;;;;;;;;;;5014593;28;20219;-91
2023/07/31 05:05:49;;;;;;;5.28;2.67;;;;;;;;;;5014689;28;20209;-91
2023/07/31 05:08:17;;;;;;;6.13;3.00;;;;;;;;;;5014856;28;20212;-91
2023/07/31 05:10:46;;;;;;;5.40;2.75;;;;;;;;;;5014991;28;20205;-91
2023/07/31 05:13:13;;;;;;;4.38;2.75;;;;;;;;;;5014256;28;20283;-92
2023/07/31 05:15:41;;;;;;;4.22;2.70;;;;;;;;;;5013432;28;20213;-92
2023/07/31 05:18:08;;;;;;;3.60;2.67;;;;;;;;;;5014714;28;20220;-92
2023/07/31 05:20:36;;;;;;;5.80;2.83;;;;;;;;;;5014878;28;20227;-91
2023/07/31 05:23:03;;;;;;;6.25;2.92;;;;;;;;;;5027477;28;20212;-92
2023/07/31 05:25:30;;;;;;;3.72;2.65;;;;;;;;;;5033833;28;20215;-92
2023/07/31 05:27:59;;;;;;;7.22;3.00;;;;;;;;;;5024517;28;20296;-92
2023/07/31 05:30:27;;;;;;;6.38;2.75;;;;;;;;;;5014166;28;20271;-92
2023/07/31 05:32:54;;;;;;;6.07;2.47;;;;;;;;;;5017194;28;20213;-92
2023/07/31 05:35:22;;;;;;;4.55;2.60;;;;;;;;;;5026766;28;20208;-92
2023/07/31 05:37:49;;;;;;;4.30;2.90;;;;;;;;;;5015109;28;20236;-91
2023/07/31 05:40:17;;;;;;;4.90;3.30;;;;;;;;;;5028931;28;20219;-91
2023/07/31 05:42:44;;;;;;;5.47;2.78;;;;;;;;;;5033791;28;20206;-92
2023/07/31 05:45:14;;;;;;;5.50;2.53;;;;;;;;;;5015821;28;20208;-92
2023/07/31 05:47:41;;;;;;;9.00;3.05;;;;;;;;;;5033205;28;20204;-92
2023/07/31 05:50:08;;;;;;;6.57;2.30;;;;;;;;;;5015473;28;20209;-91
2023/07/31 05:52:36;;;;;;;6.93;2.78;;;;;;;;;;5019063;28;20215;-91
2023/07/31 05:55:04;;;;;;;3.58;2.47;;;;;;;;;;5018733;28;20213;-92
2023/07/31 05:57:31;;;;;;;5.07;2.58;;;;;;;;;;5012893;28;20227;-92
2023/07/31 05:59:59;;;;;;;5.53;2.78;;;;;;;;;;5013952;28;20189;-91
2023/07/31 06:02:27;;;;;;;4.75;2.92;;;;;;;;;;5014109;28;20208;-92
2023/07/31 06:04:54;;;;;;;6.53;2.65;;;;;;;;;;5013605;28;20219;-91
2023/07/31 06:07:22;;;;;;;5.70;2.33;;;;;;;;;;5013622;28;20215;-91
2023/07/31 06:09:49;;;;;;;6.88;3.00;;;;;;;;;;5013646;28;20215;-92
2023/07/31 06:12:18;;;;;;;4.43;2.95;;;;;;;;;;5017775;28;20286;-92
2023/07/31 06:14:46;;;;;;;9.23;3.03;;;;;;;;;;5020638;28;20215;-91
2023/07/31 06:17:13;;;;;;;7.60;2.75;;;;;;;;;;5013036;28;20232;-92
2023/07/31 06:19:42;;;;;;;7.47;2.72;;;;;;;;;;5030911;28;20244;-92
2023/07/31 06:22:10;;;;;;;4.88;2.80;;;;;;;;;;5031274;28;20228;-92
2023/07/31 06:24:37;;;;;;;7.47;3.28;;;;;;;;;;5013569;28;20201;-92
2023/07/31 06:27:05;;;;;;;3.72;2.70;;;;;;;;;;5013174;28;20211;-93
2023/07/31 06:29:33;;;;;;;6.80;2.72;;;;;;;;;;5018871;28;20213;-92
2023/07/31 06:32:01;;;;;;;9.32;2.55;;;;;;;;;;5013627;28;20215;-91
2023/07/31 06:34:28;;;;;;;4.40;2.58;;;;;;;;;;5013756;28;20213;-92
2023/07/31 06:36:56;;;;;;;3.65;2.40;;;;;;;;;;5017715;28;20220;-92
2023/07/31 06:39:24;;;;;;;8.90;3.10;;;;;;;;;;5024309;28;20299;-91
2023/07/31 06:41:51;;;;;;;7.07;2.45;;;;;;;;;;5033848;28;20287;-92
2023/07/31 06:44:19;;;;;;;5.80;2.33;;;;;;;;;;5032785;28;20208;-92
2023/07/31 06:46:47;;;;;;;4.90;2.50;;;;;;;;;;5025598;28;20219;-91
2023/07/31 06:49:15;;;;;;;4.22;2.67;;;;;;;;;;5018321;28;20299;-91
2023/07/31 06:51:42;;;;;;;4.85;2.47;;;;;;;;;;5017045;28;20272;-91
2023/07/31 06:54:11;;;;;;;3.63;2.40;;;;;;;;;;5013137;28;20284;-92
2023/07/31 06:56:38;;;;;;;4.95;2.30;;;;;;;;;;5013630;28;20227;-92
2023/07/31 06:59:06;;;;;;;4.25;2.42;;;;;;;;;;5015400;28;20208;-91
2023/07/31 07:01:33;;;;;;;5.72;2.72;;;;;;;;;;5020159;28;20213;-91
2023/07/31 07:04:01;;;;;;;4.53;2.63;;;;;;;;;;5016492;28;20204;-92
2023/07/31 07:06:29;;;;;;;4.53;2.38;;;;;;;;;;5021614;28;20204;-92
2023/07/31 07:08:56;;;;;;;6.10;2.67;;;;;;;;;;5025798;28;20205;-92
2023/07/31 07:11:25;;;;;;;5.20;2.50;;;;;;;;;;5020896;28;20219;-91
2023/07/31 07:13:53;;;;;;;4.28;2.15;;;;;;;;;;5026395;28;20211;-91
2023/07/31 07:16:20;;;;;;;5.90;3.03;;;;;;;;;;5018155;28;20226;-91
2023/07/31 07:18:48;;;;;;;4.20;2.67;;;;;;;;;;5016227;28;20350;-91
2023/07/31 07:21:17;;;;;;;3.33;2.30;;;;;;;;;;5023836;28;20208;-92
2023/07/31 07:23:45;;;;;;;4.20;2.50;;;;;;;;;;5032827;28;20258;-92
2023/07/31 07:26:12;;;;;;;4.50;2.53;;;;;;;;;;5035190;28;20216;-92
2023/07/31 07:28:41;;;;;;;4.22;2.13;;;;;;;;;;5032265;28;20266;-93
2023/07/31 07:31:09;;;;;;;5.70;2.45;;;;;;;;;;5031521;28;20256;-92
2023/07/31 07:33:36;;;;;;;3.58;2.38;;;;;;;;;;5027670;28;20216;-92
2023/07/31 07:36:05;;;;;;;2.75;2.38;;;;;;;;;;5020516;28;20207;-92
2023/07/31 07:38:32;;;;;;;5.07;2.60;;;;;;;;;;5027492;28;20266;-92
2023/07/31 07:41:00;;;;;;;6.93;2.60;;;;;;;;;;5019376;28;20209;-91
2023/07/31 07:43:27;;;;;;;4.25;2.58;;;;;;;;;;5019934;28;20201;-92
2023/07/31 07:45:56;;;;;;;3.85;2.22;;;;;;;;;;5015723;28;20205;-92
2023/07/31 07:48:25;;;;;;;4.60;2.60;;;;;;;;;;5015953;28;20204;-92
2023/07/31 07:50:52;;;;;;;4.38;2.30;;;;;;;;;;5016179;28;20209;-91
2023/07/31 07:53:20;;;;;;;5.15;2.58;;;;;;;;;;5015257;28;20208;-92
2023/07/31 07:55:47;;;;;;;4.30;2.58;;;;;;;;;;5015574;28;20325;-92
2023/07/31 07:58:15;;;;;;;4.47;2.47;;;;;;;;;;5029876;28;20236;-92
2023/07/31 08:00:42;;;;;;;4.32;2.53;;;;;;;;;;5025242;28;20229;-92
2023/07/31 08:03:11;;;;;;;7.05;3.10;;;;;;;;;;5026054;28;20303;-91
2023/07/31 08:05:39;;;;;;;6.57;2.85;;;;;;;;;;5032290;28;20208;-92
2023/07/31 08:08:06;;;;;;;5.80;2.80;;;;;;;;;;5014535;28;20227;-91
2023/07/31 08:10:34;;;;;;;3.65;2.47;;;;;;;;;;5023291;28;20204;-92
2023/07/31 08:13:01;;;;;;;4.22;2.40;;;;;;;;;;5021679;28;20287;-92
2023/07/31 08:15:29;;;;;;;4.85;2.42;;;;;;;;;;5024496;28;20216;-92
2023/07/31 08:17:56;;;;;;;6.63;2.85;;;;;;;;;;5015039;28;20232;-92
2023/07/31 08:20:25;;;;;;;4.35;2.72;;;;;;;;;;4993878;28;20209;-92
2023/07/31 08:22:52;;;;;;;6.22;2.85;;;;;;;;;;4985209;28;20212;-91
2023/07/31 08:25:20;;;;;;;3.58;2.40;;;;;;;;;;4987721;28;20218;-92
2023/07/31 08:27:47;;;;;;;5.97;2.75;;;;;;;;;;4976575;28;20216;-92
2023/07/31 08:30:15;;;;;;;4.22;2.60;;;;;;;;;;4987292;28;20218;-91
2023/07/31 08:32:42;;;;;;;7.05;3.15;;;;;;;;;;4991898;28;20205;-91
2023/07/31 08:35:10;;;;;;;5.13;2.70;;;;;;;;;;4991285;28;20220;-92
2023/07/31 08:37:39;;;;;;;4.45;2.28;;;;;;;;;;4985429;28;20221;-92
2023/07/31 08:40:08;;;;;;;4.32;2.70;;;;;;;;;;4976493;28;20214;-92
2023/07/31 08:42:35;;;;;;;4.10;2.70;;;;;;;;;;4976448;28;20210;-92
2023/07/31 08:45:03;;;;;;;4.93;2.55;;;;;;;;;;4976391;28;20218;-92
2023/07/31 08:47:31;;;;;;;4.10;2.47;;;;;;;;;;4976120;28;20206;-92
2023/07/31 08:49:59;;;;;;;6.72;2.80;;;;;;;;;;4975733;28;20214;-92
2023/07/31 08:52:26;;;;;;;6.88;2.63;;;;;;;;;;4975831;28;20214;-92
2023/07/31 08:54:55;;;;;;;4.63;2.60;;;;;;;;;;4976163;28;20189;-92
2023/07/31 08:57:24;;;;;;;5.28;2.58;;;;;;;;;;4975364;28;20240;-92
2023/07/31 08:59:52;;;;;;;5.50;2.42;;;;;;;;;;4976091;28;20221;-92
2023/07/31 09:02:20;;;;;;;3.83;2.78;;;;;;;;;;4975891;28;20221;-92
2023/07/31 09:04:48;;;;;;;4.43;2.58;;;;;;;;;;4975970;28;20289;-92
2023/07/31 09:07:16;;;;;;;3.42;2.58;;;;;;;;;;4959275;28;20217;-91
2023/07/31 09:09:44;;;;;;;4.63;2.67;;;;;;;;;;4980871;28;20213;-92
2023/07/31 09:12:12;;;;;;;5.40;2.58;;;;;;;;;;4982991;28;20221;-92
2023/07/31 09:14:40;;;;;;;5.13;2.88;;;;;;;;;;4986175;28;20225;-93
2023/07/31 09:17:07;;;;;;;4.85;2.42;;;;;;;;;;4975769;28;20218;-92
2023/07/31 09:19:37;;;;;;;3.65;2.40;;;;;;;;;;5011325;28;20246;-93
2023/07/31 09:22:04;;;;;;;4.45;2.35;;;;;;;;;;5022005;28;20209;-92
2023/07/31 09:24:33;;;;;;;4.10;2.40;;;;;;;;;;5022099;28;20212;-92
2023/07/31 09:27:01;;;;;;;5.25;2.60;;;;;;;;;;5018082;28;20212;-94
2023/07/31 09:29:30;;;;;;;4.25;2.30;;;;;;;;;;5026028;28;20220;-93
2023/07/31 09:31:58;;;;;;;4.35;2.40;;;;;;;;;;5029405;28;20208;-91
2023/07/31 09:34:30;;;;;;;3.55;2.15;;;;;;;;;;5033056;28;20207;-92
2023/07/31 09:37:03;;;;;;;3.17;2.13;;;;;;;;;;5014818;28;20205;-92
2023/07/31 09:39:31;;;;;;;3.47;2.45;;;;;;;;;;5014335;28;20215;-92
2023/07/31 09:41:58;;;;;;;4.00;2.28;;;;;;;;;;5021057;28;20236;-92
2023/07/31 09:44:41;;;;;;;2.80;2.10;;;;;;;;;;5013099;28;20201;-90
2023/07/31 09:47:09;;;;;;;3.60;2.05;;;;;;;;;;5014327;28;20216;-90
2023/07/31 09:49:36;;;;;;;3.67;2.10;;;;;;;;;;5018369;28;20214;-90
2023/07/31 09:52:13;;;;;;;2.45;1.98;;;;;;;;;;5034106;28;20188;-90
2023/07/31 09:54:41;;;;;;;3.67;2.33;;;;;;;;;;5025026;28;20214;-90
2023/07/31 09:57:09;;;;;;;3.60;1.88;;;;;;;;;;5019634;28;20231;-90
2023/07/31 09:59:37;;;;;;;3.15;1.90;;;;;;;;;;5027406;28;20303;-89
2023/07/31 10:02:06;;;;;;;2.00;1.80;;;;;;;;;;5014365;28;20197;-90
2023/07/31 10:04:33;;;;;;;3.20;2.13;;;;;;;;;;5029810;28;20204;-90
2023/07/31 10:07:03;;;;;;;3.25;1.83;;;;;;;;;;5014424;28;20208;-89
2023/07/31 10:09:33;;;;;;;2.72;1.90;;;;;;;;;;5013748;28;20219;-90
2023/07/31 10:12:01;;;;;;;2.50;1.92;;;;;;;;;;5015350;28;20209;-90
2023/07/31 10:14:29;;;;;;;3.80;1.80;;;;;;;;;;5033370;28;20204;-90
2023/07/31 10:16:57;;;;;;;2.78;1.80;;;;;;;;;;5020620;28;20200;-93
2023/07/31 10:19:26;;;;;;;2.28;1.90;;;;;;;;;;5026804;28;20251;-92
2023/07/31 10:21:56;;;;;;;4.28;1.88;;;;;;;;;;5025685;28;20224;-92
2023/07/31 10:24:24;;;;;;;2.53;1.90;;;;;;;;;;5019365;28;20214;-92
2023/07/31 10:26:53;;;;;;;1.80;1.50;;;;;;;;;;5027556;28;20208;-92
2023/07/31 10:29:21;;;;;;;2.65;2.08;;;;;;;;;;5030157;28;20202;-91
2023/07/31 10:31:48;;;;;;;1.63;1.52;;;;;;;;;;5026955;28;20211;-93
2023/07/31 10:34:16;;;;;;;1.63;1.52;;;;;;;;;;5013982;28;20215;-93
2023/07/31 10:36:45;;;;;;;2.15;1.63;;;;;;;;;;5013608;28;20209;-92
2023/07/31 10:39:27;;;;;;;3.05;1.52;;;;;;;;;;5014200;28;20220;-92
2023/07/31 10:41:55;;;;;;;1.92;1.52;;;;;;;;;;5032913;28;20215;-92
2023/07/31 10:44:22;;;;;;;1.80;1.70;;;;;;;;;;5027751;28;20222;-92
2023/07/31 10:46:50;;;;;;;2.75;1.85;;;;;;;;;;5029154;28;20209;-92
2023/07/31 10:49:23;;;;;;;1.75;1.65;;;;;;;;;;5017486;28;20292;-92
2023/07/31 10:51:51;;;;;;;1.90;1.60;;;;;;;;;;5017185;28;20291;-91
2023/07/31 10:54:19;;;;;;;2.15;1.60;;;;;;;;;;5016883;28;20213;-93
2023/07/31 10:56:47;;;;;;;1.58;1.48;;;;;;;;;;5016883;28;20219;-92
2023/07/31 10:59:17;;;;;;;1.83;1.63;;;;;;;;;;5017151;28;20225;-92
2023/07/31 11:01:54;;;;;;;3.13;1.70;;;;;;;;;;5017128;28;20209;-93
2023/07/31 11:04:25;;;;;;;2.75;1.70;;;;;;;;;;5017145;28;20212;-92
2023/07/31 11:07:12;;;;;;;2.40;1.50;;;;;;;;;;5016726;28;20223;-93
2023/07/31 11:09:39;;;;;;;2.53;1.48;;;;;;;;;;5033448;28;20204;-92
2023/07/31 11:12:07;;;;;;;3.30;1.80;;;;;;;;;;5025426;28;20203;-92
2023/07/31 11:14:35;;;;;;;2.88;1.67;;;;;;;;;;5028382;28;20207;-92
2023/07/31 11:17:07;;;;;;;2.65;1.60;;;;;;;;;;5025732;28;20287;-92
2023/07/31 11:19:35;;;;;;;2.55;2.00;;;;;;;;;;5016474;28;20237;-92
2023/07/31 11:22:04;;;;;;;3.75;1.80;;;;;;;;;;5016022;28;20224;-93
2023/07/31 11:24:32;;;;;;;2.65;1.75;;;;;;;;;;5032926;28;20214;-93
2023/07/31 11:27:00;;;;;;;2.30;1.73;;;;;;;;;;5025711;28;20299;-91
2023/07/31 11:29:29;;;;;;;1.98;1.80;;;;;;;;;;5018650;28;20245;-93
2023/07/31 11:31:57;;;;;;;3.33;2.22;;;;;;;;;;5024691;28;20208;-92
2023/07/31 11:34:25;;;;;;;2.90;2.00;;;;;;;;;;5035801;28;20287;-91
2023/07/31 11:36:56;;;;;;;7.05;2.35;;;;;;;;;;5016952;28;20216;-92
2023/07/31 11:39:24;;;;;;;2.80;1.85;;;;;;;;;;5025259;28;20220;-92
2023/07/31 11:41:52;;;;;;;3.58;2.20;;;;;;;;;;5024112;28;20211;-92
2023/07/31 11:44:19;;;;;;;3.65;2.42;;;;;;;;;;5016075;28;20201;-91
2023/07/31 11:46:47;;;;;;;4.03;2.20;;;;;;;;;;5036004;28;20287;-92
2023/07/31 11:49:15;;;;;;;2.75;1.80;;;;;;;;;;5021401;28;20200;-92
2023/07/31 11:51:42;;;;;;;4.43;2.20;;;;;;;;;;5016631;28;20211;-92
2023/07/31 11:54:12;;;;;;;2.28;2.08;;;;;;;;;;5016681;28;20218;-93
2023/07/31 11:56:41;;;;;;;2.53;1.92;;;;;;;;;;5022504;28;20212;-92
2023/07/31 11:59:09;;;;;;;2.50;2.30;;;;;;;;;;5023663;28;20235;-91
2023/07/31 12:01:37;;;;;;;2.92;2.20;;;;;;;;;;5020520;28;20205;-91
2023/07/31 12:04:04;;;;;;;2.63;2.15;;;;;;;;;;5015928;28;20216;-93
2023/07/31 12:06:35;;;;;;;6.03;2.65;;;;;;;;;;5019990;28;20208;-92
2023/07/31 12:09:04;;;;;;;4.00;2.50;;;;;;;;;;5016230;28;20215;-93
2023/07/31 12:11:31;;;;;;;2.67;2.30;;;;;;;;;;5021697;28;20217;-93
2023/07/31 12:14:00;;;;;;;3.05;2.40;;;;;;;;;;5027225;28;20208;-92
2023/07/31 12:16:29;;;;;;;2.42;2.10;;;;;;;;;;5028233;28;20207;-92
2023/07/31 12:18:56;;;;;;;4.30;2.40;;;;;;;;;;5026638;28;20252;-93
2023/07/31 12:21:24;;;;;;;3.35;2.35;;;;;;;;;;4998480;28;20211;-93
2023/07/31 12:23:54;;;;;;;5.28;2.42;;;;;;;;;;5023209;28;20215;-92
2023/07/31 12:26:23;;;;;;;5.85;2.50;;;;;;;;;;5033935;28;20259;-93
2023/07/31 12:28:51;;;;;;;6.10;2.40;;;;;;;;;;5017665;28;20273;-92
2023/07/31 12:31:20;;;;;;;4.53;2.50;;;;;;;;;;5029368;28;20205;-92
2023/07/31 12:33:49;;;;;;;3.45;2.65;;;;;;;;;;5021696;28;20219;-92
2023/07/31 12:36:17;;;;;;;3.58;2.60;;;;;;;;;;5035106;28;20212;-93
2023/07/31 12:38:45;;;;;;;5.28;3.00;;;;;;;;;;5019414;28;20229;-90
2023/07/31 12:41:13;;;;;;;4.60;2.80;;;;;;;;;;5016635;28;20220;-91
2023/07/31 12:43:42;;;;;;;3.67;2.70;;;;;;;;;;5032198;28;20220;-92
2023/07/31 12:46:10;;;;;;;5.70;2.67;;;;;;;;;;5023258;28;20216;-93
2023/07/31 12:48:39;;;;;;;3.75;2.80;;;;;;;;;;5022055;28;20219;-93
2023/07/31 12:51:07;;;;;;;3.42;2.60;;;;;;;;;;5014488;28;20219;-90
2023/07/31 12:53:35;;;;;;;5.85;2.50;;;;;;;;;;5014759;28;20282;-90
2023/07/31 12:56:02;;;;;;;2.13;1.92;;;;;;;;;;5015165;28;20271;-89
2023/07/31 12:58:30;;;;;;;2.35;1.70;;;;;;;;;;5014724;28;20251;-91
2023/07/31 13:00:58;;;;;;;2.10;1.90;;;;;;;;;;5015335;28;20244;-90
2023/07/31 13:03:25;;;;;;;3.33;2.10;;;;;;;;;;5014514;28;20248;-90
2023/07/31 13:05:54;;;;;;;2.38;1.92;;;;;;;;;;5026112;28;20232;-90
2023/07/31 13:08:21;;;;;;;3.15;2.00;;;;;;;;;;5026000;28;20301;-89
2023/07/31 13:10:49;;;;;;;2.60;2.15;;;;;;;;;;5016003;28;20201;-91
2023/07/31 13:13:16;;;;;;;2.35;2.13;;;;;;;;;;5020875;28;20211;-92
2023/07/31 13:15:45;;;;;;;4.20;2.03;;;;;;;;;;5020794;28;20208;-91
2023/07/31 13:18:13;;;;;;;2.47;1.92;;;;;;;;;;5024166;28;20204;-92
2023/07/31 13:20:40;;;;;;;3.63;2.20;;;;;;;;;;5028835;28;20204;-91
2023/07/31 13:23:09;;;;;;;5.03;2.30;;;;;;;;;;5016864;28;20232;-91
2023/07/31 13:25:36;;;;;;;2.33;2.13;;;;;;;;;;5016405;28;20216;-92
2023/07/31 13:28:04;;;;;;;2.60;2.20;;;;;;;;;;5032801;28;20207;-92
2023/07/31 13:30:31;;;;;;;4.90;2.35;;;;;;;;;;5027916;28;20207;-92
2023/07/31 13:32:59;;;;;;;3.75;2.65;;;;;;;;;;5032202;28;20207;-92
2023/07/31 13:35:26;;;;;;;4.13;2.63;;;;;;;;;;5015033;28;20201;-92
2023/07/31 13:37:54;;;;;;;3.60;2.13;;;;;;;;;;5013467;28;20216;-92
2023/07/31 13:40:23;;;;;;;4.18;2.40;;;;;;;;;;5017672;28;20250;-92
2023/07/31 13:42:51;;;;;;;3.80;2.28;;;;;;;;;;5025518;28;20234;-92
2023/07/31 13:45:18;;;;;;;4.13;2.33;;;;;;;;;;5019657;28;20204;-92
2023/07/31 13:47:46;;;;;;;3.28;2.08;;;;;;;;;;5034385;28;20200;-92
2023/07/31 13:50:14;;;;;;;2.97;2.00;;;;;;;;;;5026130;28;20215;-92
2023/07/31 13:52:41;;;;;;;4.57;2.20;;;;;;;;;;5014223;28;20224;-93
2023/07/31 13:55:09;;;;;;;2.90;2.20;;;;;;;;;;5015036;28;20204;-92
2023/07/31 13:57:38;;;;;;;2.95;2.40;;;;;;;;;;5022430;28;20283;-92
2023/07/31 14:00:06;;;;;;;4.45;2.35;;;;;;;;;;5017780;28;20224;-91
2023/07/31 14:02:33;;;;;;;3.50;2.35;;;;;;;;;;5025171;28;20214;-92
2023/07/31 14:05:00;;;;;;;3.17;2.17;;;;;;;;;;5021265;28;20211;-91
2023/07/31 14:07:28;;;;;;;3.42;2.53;;;;;;;;;;5018588;28;20220;-93
2023/07/31 14:09:55;;;;;;;6.20;2.70;;;;;;;;;;5024369;28;20207;-93
2023/07/31 14:12:23;;;;;;;4.38;2.17;;;;;;;;;;5014273;28;20196;-94
2023/07/31 14:14:52;;;;;;;2.55;2.00;;;;;;;;;;5018690;28;20206;-92
2023/07/31 14:17:19;;;;;;;3.65;2.40;;;;;;;;;;5015369;28;20219;-92
2023/07/31 14:19:47;;;;;;;4.68;2.15;;;;;;;;;;5024977;28;20258;-92
2023/07/31 14:22:14;;;;;;;2.88;2.33;;;;;;;;;;5020564;28;20299;-93
2023/07/31 14:24:42;;;;;;;4.20;2.63;;;;;;;;;;5035561;28;20282;-93
2023/07/31 14:27:10;;;;;;;3.15;2.45;;;;;;;;;;5026701;28;20208;-93
2023/07/31 14:29:37;;;;;;;2.67;2.22;;;;;;;;;;5028146;28;20208;-92
2023/07/31 14:32:06;;;;;;;5.55;2.67;;;;;;;;;;5035161;28;20204;-93
2023/07/31 14:34:34;;;;;;;4.63;2.83;;;;;;;;;;5032325;28;20204;-93
2023/07/31 14:37:01;;;;;;;4.20;2.47;;;;;;;;;;5024005;28;20201;-93
2023/07/31 14:39:29;;;;;;;4.05;2.40;;;;;;;;;;5022442;28;20308;-93
2023/07/31 14:41:56;;;;;;;5.68;2.58;;;;;;;;;;5023933;28;20204;-92
2023/07/31 14:44:24;;;;;;;5.05;2.60;;;;;;;;;;5016509;28;20263;-93
2023/07/31 14:46:51;;;;;;;3.72;2.60;;;;;;;;;;5020780;28;20212;-94
2023/07/31 14:49:20;;;;;;;4.60;2.50;;;;;;;;;;5029502;28;20200;-93
2023/07/31 14:51:48;;;;;;;4.95;2.80;;;;;;;;;;5025334;28;20201;-93